Time;durP1;ratioP1;P1;durP2;ratioP2;P2;SDS_P1;SDS_P2;PMS_P1;PMS_P2;Temp;Humidity;BMP_temperature;BMP_pressure;BME280_temperature;BME280_humidity;BME280_pressure;Samples;Min_cycle;Max_cycle;Signal;HPM_P1;HPM_P2
2021/12/01 00:00:26;;;;;;;26.38;13.43;;;8.80;99.90;;;;;;5076686;28;20540;-72
2021/12/01 00:02:53;;;;;;;31.77;13.88;;;8.90;99.90;;;;;;5076106;28;20087;-72
2021/12/01 00:05:21;;;;;;;28.92;13.63;;;8.90;99.90;;;;;;5074821;28;20048;-73
2021/12/01 00:07:48;;;;;;;29.52;13.00;;;8.90;99.90;;;;;;5074796;28;20040;-73
2021/12/01 00:10:16;;;;;;;26.67;12.40;;;8.90;99.90;;;;;;5075951;28;20044;-73
2021/12/01 00:12:42;;;;;;;26.30;12.05;;;8.90;99.90;;;;;;5075666;28;20094;-73
2021/12/01 00:15:08;;;;;;;25.02;11.95;;;8.90;99.90;;;;;;5076165;28;20439;-73
2021/12/01 00:17:34;;;;;;;24.77;12.10;;;9.00;99.90;;;;;;5075824;28;20051;-73
2021/12/01 00:20:00;;;;;;;21.52;10.18;;;9.10;99.90;;;;;;5076062;28;20052;-73
2021/12/01 00:22:26;;;;;;;26.75;11.90;;;9.00;99.90;;;;;;5075739;28;20090;-73
2021/12/01 00:24:53;;;;;;;27.40;12.18;;;9.00;99.90;;;;;;5076008;28;20102;-73
2021/12/01 00:27:19;;;;;;;22.45;10.50;;;9.00;99.90;;;;;;5075527;28;20040;-71
2021/12/01 00:29:44;;;;;;;22.30;10.38;;;9.00;99.90;;;;;;5075423;28;20044;-72
2021/12/01 00:32:10;;;;;;;27.48;11.80;;;9.10;99.90;;;;;;5075595;28;20131;-72
2021/12/01 00:34:36;;;;;;;27.50;11.93;;;9.10;99.90;;;;;;5075854;28;20075;-72
2021/12/01 00:37:02;;;;;;;29.02;13.05;;;9.10;99.90;;;;;;5075469;28;20051;-72
2021/12/01 00:39:27;;;;;;;22.70;12.90;;;9.00;99.90;;;;;;5075482;28;20405;-72
2021/12/01 00:41:55;;;;;;;27.55;12.38;;;9.00;99.90;;;;;;5075889;28;20473;-72
2021/12/01 00:44:21;;;;;;;23.45;12.75;;;9.10;99.90;;;;;;5076097;28;20048;-72
2021/12/01 00:49:42;;;;;;;30.52;14.02;;;9.20;99.90;;;;;;5070499;28;20128;-72
2021/12/01 00:52:08;;;;;;;35.05;15.63;;;9.10;99.90;;;;;;5075395;28;20186;-72
2021/12/01 00:54:34;;;;;;;28.42;13.18;;;9.10;99.90;;;;;;5075122;28;20060;-72
2021/12/01 00:57:00;;;;;;;32.10;16.65;;;9.20;99.90;;;;;;5075041;28;20082;-71
2021/12/01 00:59:26;;;;;;;29.98;15.82;;;9.20;99.90;;;;;;5073985;28;20463;-72
2021/12/01 01:01:52;;;;;;;34.10;18.35;;;9.20;99.90;;;;;;5074030;28;20049;-72
2021/12/01 01:04:18;;;;;;;31.83;16.15;;;9.20;99.90;;;;;;5074959;28;20063;-72
2021/12/01 01:06:44;;;;;;;30.08;15.65;;;9.20;99.90;;;;;;5074721;28;20366;-72
2021/12/01 01:09:10;;;;;;;30.75;14.57;;;9.30;99.90;;;;;;5074131;28;20048;-72
2021/12/01 01:17:10;;;;;;;25.92;14.50;;;9.30;99.90;;;;;;5074730;28;20049;-72
2021/12/01 01:19:38;;;;;;;28.38;15.25;;;9.30;99.90;;;;;;5075362;28;20119;-72
2021/12/01 01:22:06;;;;;;;28.70;15.27;;;9.30;99.90;;;;;;5074034;28;20500;-72
2021/12/01 01:24:33;;;;;;;30.27;14.10;;;9.30;99.90;;;;;;5075293;28;20075;-73
2021/12/01 01:26:59;;;;;;;31.67;15.93;;;9.30;99.90;;;;;;5074359;28;20036;-72
2021/12/01 01:29:25;;;;;;;32.58;16.40;;;9.30;99.90;;;;;;5074418;28;20114;-72
2021/12/01 01:31:54;;;;;;;32.55;15.88;;;9.20;99.90;;;;;;5074343;28;20067;-71
2021/12/01 01:34:21;;;;;;;33.50;17.55;;;9.20;99.90;;;;;;5074291;28;20040;-73
2021/12/01 01:36:47;;;;;;;34.78;17.23;;;9.20;99.90;;;;;;5074095;28;20063;-72
2021/12/01 01:39:12;;;;;;;30.35;15.32;;;9.20;99.90;;;;;;5074237;28;20077;-72
2021/12/01 01:41:38;;;;;;;29.85;14.38;;;9.10;99.90;;;;;;5072774;28;20077;-72
2021/12/01 01:44:05;;;;;;;31.70;14.88;;;9.20;99.90;;;;;;5072874;28;20484;-73
2021/12/01 01:46:33;;;;;;;25.13;12.00;;;9.10;99.90;;;;;;5074016;28;20461;-73
2021/12/01 01:49:07;;;;;;;22.13;10.63;;;9.20;99.90;;;;;;5072902;28;20044;-72
2021/12/01 01:51:33;;;;;;;22.13;10.73;;;9.20;99.90;;;;;;5074194;28;20067;-72
2021/12/01 01:53:59;;;;;;;23.98;11.10;;;9.20;99.90;;;;;;5074278;28;20127;-72
2021/12/01 01:56:26;;;;;;;20.95;10.13;;;9.20;99.90;;;;;;5073944;28;20532;-73
2021/12/01 01:58:52;;;;;;;25.75;11.13;;;9.30;99.90;;;;;;5073954;28;20419;-73
2021/12/01 02:04:03;;;;;;;18.33;9.95;;;9.30;99.90;;;;;;5074395;28;20113;-73
2021/12/01 02:06:30;;;;;;;21.08;10.88;;;9.30;99.90;;;;;;5073808;28;20044;-72
2021/12/01 02:08:59;;;;;;;20.98;10.52;;;9.30;99.90;;;;;;5072856;28;20094;-72
2021/12/01 02:11:26;;;;;;;17.15;9.40;;;9.40;99.90;;;;;;5073969;28;20484;-73
2021/12/01 02:13:53;;;;;;;22.15;10.25;;;9.40;99.90;;;;;;5074122;28;20048;-72
2021/12/01 02:16:20;;;;;;;21.30;9.88;;;9.30;99.90;;;;;;5073944;28;20047;-73
2021/12/01 02:18:46;;;;;;;20.23;10.13;;;9.30;99.90;;;;;;5073609;28;20045;-73
2021/12/01 02:21:29;;;;;;;19.58;9.68;;;9.30;99.90;;;;;;5073625;28;20047;-73
2021/12/01 02:24:01;;;;;;;28.05;10.38;;;9.30;99.90;;;;;;5073640;28;20049;-73
2021/12/01 02:26:28;;;;;;;22.10;9.88;;;9.30;99.90;;;;;;5074046;28;20052;-72
2021/12/01 02:28:57;;;;;;;16.63;8.90;;;9.30;99.90;;;;;;5073536;28;20048;-72
2021/12/01 02:31:28;;;;;;;20.70;9.10;;;9.40;99.90;;;;;;5073670;28;20074;-72
2021/12/01 02:33:54;;;;;;;13.32;7.22;;;9.40;99.90;;;;;;5073553;28;20040;-73
2021/12/01 02:36:20;;;;;;;16.55;7.85;;;9.40;99.90;;;;;;5074207;28;20044;-72
2021/12/01 02:38:48;;;;;;;14.82;7.53;;;9.40;99.90;;;;;;5072760;28;20086;-72
2021/12/01 02:41:15;;;;;;;16.27;7.97;;;9.40;99.90;;;;;;5072452;28;20045;-72
2021/12/01 02:43:44;;;;;;;13.93;7.35;;;9.40;99.90;;;;;;5073274;28;20056;-72
2021/12/01 02:46:10;;;;;;;15.05;6.70;;;9.40;99.90;;;;;;5072360;28;20051;-72
2021/12/01 02:48:41;;;;;;;14.75;7.47;;;9.40;99.90;;;;;;5072572;28;20385;-72
2021/12/01 02:51:08;;;;;;;16.70;8.98;;;9.40;99.90;;;;;;5072664;28;20127;-72
2021/12/01 02:53:34;;;;;;;14.27;6.18;;;9.40;99.90;;;;;;5073971;28;20400;-72
2021/12/01 02:56:03;;;;;;;13.75;7.22;;;9.40;99.90;;;;;;5077207;28;20049;-72
2021/12/01 02:58:33;;;;;;;12.82;6.20;;;9.40;99.90;;;;;;5077939;28;20105;-72
2021/12/01 03:01:05;;;;;;;14.80;6.93;;;9.40;99.90;;;;;;5078013;28;20055;-72
2021/12/01 03:03:31;;;;;;;13.85;5.90;;;9.50;99.90;;;;;;5077333;28;20045;-71
2021/12/01 03:05:57;;;;;;;9.32;4.88;;;9.40;99.90;;;;;;5077178;28;20041;-71
2021/12/01 03:08:23;;;;;;;14.32;6.13;;;9.40;99.90;;;;;;5075915;28;20055;-72
2021/12/01 03:10:51;;;;;;;9.93;4.90;;;9.40;99.90;;;;;;5077130;28;20049;-71
2021/12/01 03:13:19;;;;;;;8.52;4.43;;;9.40;99.90;;;;;;5076997;28;20045;-72
2021/12/01 03:15:46;;;;;;;6.97;3.72;;;9.50;99.90;;;;;;5076071;28;20040;-72
2021/12/01 03:18:12;;;;;;;6.13;3.08;;;9.50;99.90;;;;;;5076946;28;20090;-72
2021/12/01 03:20:38;;;;;;;5.68;3.05;;;9.50;99.90;;;;;;5077169;28;20063;-72
2021/12/01 03:23:04;;;;;;;5.43;2.95;;;9.50;99.90;;;;;;5075851;28;20045;-73
2021/12/01 03:25:31;;;;;;;6.97;3.05;;;9.50;99.90;;;;;;5076796;28;20048;-73
2021/12/01 03:27:56;;;;;;;5.10;2.80;;;9.60;99.90;;;;;;5076690;28;20044;-73
2021/12/01 03:30:22;;;;;;;5.93;3.08;;;9.60;99.90;;;;;;5077271;28;20046;-73
2021/12/01 03:32:49;;;;;;;6.03;3.00;;;9.60;99.90;;;;;;5075489;28;20045;-73
2021/12/01 03:35:15;;;;;;;5.00;2.83;;;9.60;99.90;;;;;;5076652;28;20053;-74
2021/12/01 03:37:43;;;;;;;5.60;3.42;;;9.60;99.90;;;;;;5075622;28;20055;-73
2021/12/01 03:40:10;;;;;;;7.60;3.45;;;9.60;99.90;;;;;;5058853;28;20044;-73
2021/12/01 03:42:36;;;;;;;8.63;4.03;;;9.50;99.90;;;;;;5075008;28;20505;-75
2021/12/01 03:45:03;;;;;;;6.03;3.42;;;9.50;99.90;;;;;;5077338;28;20048;-75
2021/12/01 03:47:29;;;;;;;6.75;3.35;;;9.50;99.90;;;;;;5076407;28;20039;-76
2021/12/01 03:49:55;;;;;;;5.43;3.35;;;9.50;99.90;;;;;;5077152;28;20052;-75
2021/12/01 03:52:23;;;;;;;6.88;3.42;;;9.50;99.90;;;;;;5075760;28;20474;-74
2021/12/01 03:54:49;;;;;;;6.32;3.38;;;9.50;99.90;;;;;;5076322;28;20111;-74
2021/12/01 03:57:16;;;;;;;5.13;3.10;;;9.50;99.90;;;;;;5076275;28;20079;-75
2021/12/01 03:59:42;;;;;;;6.47;2.97;;;9.50;99.90;;;;;;5075948;28;20485;-74
2021/12/01 04:02:08;;;;;;;6.63;3.05;;;9.50;99.90;;;;;;5076106;28;20128;-74
2021/12/01 04:04:33;;;;;;;6.60;4.03;;;9.50;99.90;;;;;;5075758;28;20091;-74
2021/12/01 04:06:59;;;;;;;6.30;3.85;;;9.50;99.90;;;;;;5075476;28;20041;-74
2021/12/01 04:09:26;;;;;;;5.30;3.05;;;9.40;99.90;;;;;;5076088;28;20044;-74
2021/12/01 04:11:52;;;;;;;7.20;3.30;;;9.40;99.90;;;;;;5075975;28;20041;-74
2021/12/01 04:14:17;;;;;;;6.97;3.85;;;9.40;99.90;;;;;;5075842;28;20044;-75
2021/12/01 04:16:45;;;;;;;7.85;4.15;;;9.40;99.90;;;;;;5076674;28;20040;-75
2021/12/01 04:19:10;;;;;;;5.72;3.38;;;9.40;99.90;;;;;;5075679;28;20088;-75
2021/12/01 04:21:37;;;;;;;5.43;3.17;;;9.40;99.90;;;;;;5075808;28;20076;-77
2021/12/01 04:24:03;;;;;;;7.10;3.78;;;9.40;99.90;;;;;;5074857;28;20106;-74
2021/12/01 04:26:33;;;;;;;5.32;2.60;;;9.40;99.90;;;;;;5075680;28;20118;-74
2021/12/01 04:29:00;;;;;;;5.32;2.80;;;9.40;99.90;;;;;;5075624;28;20452;-75
2021/12/01 04:31:29;;;;;;;4.78;3.17;;;9.40;99.90;;;;;;5075559;28;20561;-74
2021/12/01 04:33:55;;;;;;;5.40;3.13;;;9.30;99.90;;;;;;5075149;28;20482;-74
2021/12/01 04:36:26;;;;;;;4.72;2.60;;;9.30;99.90;;;;;;5075223;28;20136;-75
2021/12/01 04:38:52;;;;;;;5.07;2.65;;;9.30;99.90;;;;;;5075628;28;20055;-74
2021/12/01 04:41:19;;;;;;;4.07;2.38;;;9.30;99.90;;;;;;5074475;28;20083;-75
2021/12/01 04:43:47;;;;;;;4.25;2.60;;;9.30;99.90;;;;;;5074358;28;20045;-74
2021/12/01 04:46:16;;;;;;;3.75;2.10;;;9.30;99.90;;;;;;5075395;28;20098;-73
2021/12/01 04:48:43;;;;;;;4.10;2.58;;;9.20;99.90;;;;;;5075388;28;20479;-74
2021/12/01 04:51:08;;;;;;;4.53;2.65;;;9.20;99.90;;;;;;5075220;28;20047;-75
2021/12/01 04:53:35;;;;;;;3.67;2.30;;;9.20;99.90;;;;;;5075038;28;20460;-75
2021/12/01 04:56:00;;;;;;;3.42;1.65;;;9.20;99.90;;;;;;5074965;28;20110;-75
2021/12/01 04:58:28;;;;;;;3.47;2.15;;;9.20;99.90;;;;;;5075101;28;20041;-75
2021/12/01 05:00:54;;;;;;;4.43;2.63;;;9.20;99.90;;;;;;5075097;28;20447;-74
2021/12/01 05:03:19;;;;;;;3.17;2.00;;;9.20;99.90;;;;;;5074782;28;20060;-74
2021/12/01 05:05:45;;;;;;;4.40;1.77;;;9.10;99.90;;;;;;5073721;28;20048;-74
2021/12/01 05:08:11;;;;;;;2.75;1.52;;;9.10;99.90;;;;;;5075380;28;20040;-74
2021/12/01 05:10:36;;;;;;;3.17;1.90;;;9.10;99.90;;;;;;5074879;28;20040;-75
2021/12/01 05:13:02;;;;;;;3.17;1.70;;;9.00;99.90;;;;;;5074417;28;20044;-74
2021/12/01 05:15:28;;;;;;;3.15;1.60;;;9.00;99.90;;;;;;5074923;28;20048;-75
2021/12/01 05:17:54;;;;;;;3.10;1.83;;;9.00;99.90;;;;;;5073760;28;20040;-74
2021/12/01 05:20:19;;;;;;;3.33;1.70;;;9.00;99.90;;;;;;5073486;28;20051;-75
2021/12/01 05:22:45;;;;;;;3.17;1.85;;;8.90;99.90;;;;;;5074605;28;20041;-74
2021/12/01 05:25:11;;;;;;;3.05;1.65;;;8.90;99.90;;;;;;5075360;28;20374;-73
2021/12/01 05:27:37;;;;;;;3.17;2.00;;;8.90;99.90;;;;;;5075228;28;20045;-75
2021/12/01 05:30:05;;;;;;;2.45;1.40;;;8.80;99.90;;;;;;5074508;28;20418;-74
2021/12/01 05:32:31;;;;;;;3.72;1.92;;;8.90;99.90;;;;;;5074350;28;20052;-73
2021/12/01 05:34:58;;;;;;;2.97;1.73;;;8.80;99.90;;;;;;5074032;28;20527;-75
2021/12/01 05:37:24;;;;;;;2.47;1.58;;;8.80;99.90;;;;;;5073984;28;20048;-74
2021/12/01 05:39:49;;;;;;;2.95;1.85;;;8.80;99.90;;;;;;5074824;28;20119;-75
2021/12/01 05:42:16;;;;;;;3.30;1.98;;;8.70;99.90;;;;;;5074243;28;20418;-74
2021/12/01 05:44:43;;;;;;;3.63;1.88;;;8.80;99.90;;;;;;5074139;28;20126;-74
2021/12/01 05:47:09;;;;;;;4.03;2.00;;;8.70;99.90;;;;;;5073984;28;20480;-74
2021/12/01 05:49:41;;;;;;;3.42;2.00;;;8.70;99.90;;;;;;5074051;28;20044;-74
2021/12/01 05:52:08;;;;;;;2.55;1.60;;;8.70;99.90;;;;;;5074081;28;20056;-75
2021/12/01 05:54:34;;;;;;;4.75;2.10;;;8.70;99.90;;;;;;5072822;28;20048;-73
2021/12/01 05:57:00;;;;;;;2.88;1.80;;;8.60;99.90;;;;;;5073962;28;20485;-74
2021/12/01 05:59:26;;;;;;;3.53;1.95;;;8.60;99.90;;;;;;5073978;28;20493;-72
2021/12/01 06:01:51;;;;;;;4.60;2.25;;;8.60;99.90;;;;;;5073059;28;20058;-75
2021/12/01 06:04:17;;;;;;;2.90;2.00;;;8.60;99.90;;;;;;5073887;28;20051;-74
2021/12/01 06:06:42;;;;;;;2.72;1.73;;;8.60;99.90;;;;;;5056180;28;20484;-73
2021/12/01 06:09:08;;;;;;;3.03;1.80;;;8.50;99.90;;;;;;5073456;28;20052;-75
2021/12/01 06:11:34;;;;;;;3.45;1.88;;;8.60;99.90;;;;;;5073760;28;20067;-75
2021/12/01 06:14:01;;;;;;;3.45;1.95;;;8.50;99.90;;;;;;5073635;28;20127;-74
2021/12/01 06:16:27;;;;;;;3.22;1.70;;;8.50;99.90;;;;;;5056006;28;20052;-74
2021/12/01 06:18:52;;;;;;;4.00;2.13;;;8.50;99.90;;;;;;5073288;28;20042;-73
2021/12/01 06:21:18;;;;;;;4.47;2.47;;;8.50;99.90;;;;;;5073626;28;20477;-75
2021/12/01 06:23:44;;;;;;;3.42;2.35;;;8.50;99.90;;;;;;5073414;28;20048;-74
2021/12/01 06:26:10;;;;;;;3.20;2.10;;;8.40;99.90;;;;;;5074344;28;20097;-75
2021/12/01 06:28:37;;;;;;;5.15;2.45;;;8.40;99.90;;;;;;5073266;28;20045;-75
2021/12/01 06:31:03;;;;;;;3.30;1.90;;;8.40;99.90;;;;;;5073299;28;20524;-74
2021/12/01 06:33:29;;;;;;;5.07;2.65;;;8.40;99.90;;;;;;5073505;28;20044;-74
2021/12/01 06:35:55;;;;;;;4.60;2.30;;;8.50;99.90;;;;;;5074223;28;20044;-74
2021/12/01 06:38:21;;;;;;;4.18;2.22;;;8.40;99.90;;;;;;5073411;28;20555;-73
2021/12/01 06:40:48;;;;;;;3.70;2.20;;;8.40;99.90;;;;;;5072403;28;20084;-74
2021/12/01 06:43:14;;;;;;;3.97;2.30;;;8.40;99.90;;;;;;5074081;28;20129;-74
2021/12/01 06:45:40;;;;;;;3.95;2.40;;;8.40;99.90;;;;;;5073371;28;20458;-74
2021/12/01 06:48:06;;;;;;;3.60;2.60;;;8.40;99.90;;;;;;5073269;28;20119;-74
2021/12/01 06:50:32;;;;;;;3.90;2.33;;;8.40;99.90;;;;;;5073795;28;20565;-74
2021/12/01 06:52:58;;;;;;;3.38;2.35;;;8.40;99.90;;;;;;5071765;28;20088;-74
2021/12/01 06:55:24;;;;;;;3.20;1.92;;;8.40;99.90;;;;;;5073322;28;20053;-74
2021/12/01 06:57:50;;;;;;;4.75;2.70;;;8.40;99.90;;;;;;5073277;28;20090;-73
2021/12/01 07:00:18;;;;;;;4.07;2.60;;;8.40;99.90;;;;;;5071965;28;20416;-74
2021/12/01 07:02:45;;;;;;;3.85;2.40;;;8.40;99.90;;;;;;5073975;28;20053;-74
2021/12/01 07:05:11;;;;;;;3.92;2.80;;;8.30;99.90;;;;;;5073184;28;20052;-75
2021/12/01 07:07:38;;;;;;;3.60;2.13;;;8.40;99.90;;;;;;5073040;28;20090;-75
2021/12/01 07:10:07;;;;;;;5.78;2.90;;;8.40;99.90;;;;;;5073153;28;20048;-66
2021/12/01 07:12:32;;;;;;;4.90;2.75;;;8.40;99.90;;;;;;5073036;28;20071;-67
2021/12/01 07:14:58;;;;;;;3.63;2.33;;;8.30;99.90;;;;;;5073806;28;20318;-66
2021/12/01 07:17:24;;;;;;;3.47;2.60;;;8.40;99.90;;;;;;5073709;28;20040;-65
2021/12/01 07:19:50;;;;;;;3.65;2.10;;;8.30;99.90;;;;;;5073670;28;20040;-66
2021/12/01 07:22:16;;;;;;;3.90;2.50;;;8.30;99.90;;;;;;5072998;28;20045;-65
2021/12/01 07:24:43;;;;;;;3.22;2.10;;;8.30;99.90;;;;;;5073240;28;20460;-65
2021/12/01 07:27:09;;;;;;;3.10;2.10;;;8.30;99.90;;;;;;5072885;28;20048;-65
2021/12/01 07:29:35;;;;;;;5.93;2.40;;;8.30;99.90;;;;;;5072632;28;20477;-65
2021/12/01 07:32:01;;;;;;;3.78;2.45;;;8.30;99.90;;;;;;5072754;28;20040;-65
2021/12/01 07:34:27;;;;;;;3.67;1.80;;;8.20;99.90;;;;;;5072865;28;20048;-66
2021/12/01 07:36:53;;;;;;;2.97;2.05;;;8.20;99.90;;;;;;5073062;28;20056;-65
2021/12/01 07:39:19;;;;;;;3.35;1.80;;;8.20;99.90;;;;;;5072830;28;20564;-65
2021/12/01 07:41:46;;;;;;;3.83;2.13;;;8.20;99.90;;;;;;5075643;28;20388;-66
2021/12/01 07:44:12;;;;;;;3.50;2.22;;;8.20;99.90;;;;;;5076425;28;20124;-65
2021/12/01 07:46:37;;;;;;;2.58;1.55;;;8.30;99.90;;;;;;5076384;28;20501;-66
2021/12/01 07:49:04;;;;;;;2.45;1.75;;;8.30;99.90;;;;;;5076420;28;20396;-65
2021/12/01 07:51:30;;;;;;;2.20;1.48;;;8.20;99.90;;;;;;5076847;28;20349;-65
2021/12/01 07:53:55;;;;;;;2.88;1.67;;;8.30;99.90;;;;;;5076192;28;20094;-65
2021/12/01 07:56:22;;;;;;;2.55;1.90;;;8.30;99.90;;;;;;5076397;28;20057;-66
2021/12/01 07:58:47;;;;;;;3.33;1.98;;;8.20;99.90;;;;;;5076736;28;20045;-66
2021/12/01 08:01:13;;;;;;;2.85;1.95;;;8.30;99.90;;;;;;5076279;28;20055;-65
2021/12/01 08:03:38;;;;;;;2.30;1.50;;;8.30;99.90;;;;;;5076114;28;20076;-65
2021/12/01 08:06:05;;;;;;;2.65;1.25;;;8.30;99.90;;;;;;5076109;28;20048;-66
2021/12/01 08:08:30;;;;;;;2.95;1.67;;;8.30;99.90;;;;;;5076009;28;20082;-65
2021/12/01 08:10:56;;;;;;;2.92;1.70;;;8.30;99.90;;;;;;5076565;28;20044;-66
2021/12/01 08:13:22;;;;;;;3.03;1.83;;;8.30;99.90;;;;;;5075885;28;20048;-65
2021/12/01 08:15:48;;;;;;;3.40;1.77;;;8.40;99.90;;;;;;5058281;28;20136;-65
2021/12/01 08:18:16;;;;;;;2.90;1.73;;;8.40;99.90;;;;;;5076426;28;20055;-65
2021/12/01 08:20:41;;;;;;;3.35;1.58;;;8.40;99.90;;;;;;5075719;28;20045;-73
2021/12/01 08:23:07;;;;;;;3.03;1.65;;;8.50;99.90;;;;;;5074660;28;20048;-73
2021/12/01 08:25:33;;;;;;;3.58;1.88;;;8.50;99.90;;;;;;5075157;28;20048;-77
2021/12/01 08:28:01;;;;;;;3.08;2.10;;;8.70;99.90;;;;;;5075269;28;20049;-74
2021/12/01 08:30:28;;;;;;;3.90;1.95;;;8.60;99.90;;;;;;5076028;28;20366;-75
2021/12/01 08:32:54;;;;;;;3.00;1.50;;;8.50;99.90;;;;;;5076197;28;20117;-75
2021/12/01 08:35:20;;;;;;;3.08;1.88;;;8.60;99.90;;;;;;5075569;28;20052;-73
2021/12/01 08:37:46;;;;;;;4.22;2.35;;;8.60;99.90;;;;;;5075479;28;20044;-74
2021/12/01 08:40:14;;;;;;;3.58;2.00;;;8.70;99.90;;;;;;5075494;28;20063;-74
2021/12/01 08:42:40;;;;;;;2.75;1.80;;;8.70;99.90;;;;;;5075359;28;20124;-74
2021/12/01 08:45:07;;;;;;;3.22;2.05;;;8.70;99.90;;;;;;5075641;28;20108;-74
2021/12/01 08:47:33;;;;;;;3.58;1.90;;;8.80;99.90;;;;;;5075233;28;20049;-78
2021/12/01 08:49:59;;;;;;;3.58;2.10;;;8.80;99.90;;;;;;5075263;28;20488;-77
2021/12/01 08:52:25;;;;;;;3.35;2.25;;;8.80;99.90;;;;;;5073901;28;20057;-77
2021/12/01 08:54:51;;;;;;;3.55;1.95;;;8.80;99.90;;;;;;5075199;28;20055;-75
2021/12/01 08:57:17;;;;;;;4.57;2.45;;;8.70;99.90;;;;;;5075565;28;20041;-76
2021/12/01 08:59:44;;;;;;;4.72;2.83;;;8.70;99.90;;;;;;5075653;28;20485;-75
2021/12/01 09:02:10;;;;;;;4.82;2.55;;;8.60;99.90;;;;;;5075581;28;20086;-73
2021/12/01 09:04:36;;;;;;;4.78;3.13;;;8.60;99.90;;;;;;5075452;28;20048;-74
2021/12/01 09:07:03;;;;;;;5.07;3.25;;;8.60;99.90;;;;;;5073745;28;20051;-75
2021/12/01 09:09:29;;;;;;;4.38;2.72;;;8.60;99.90;;;;;;5074861;28;20049;-74
2021/12/01 09:11:55;;;;;;;3.80;2.55;;;8.60;99.90;;;;;;5074798;28;20499;-73
2021/12/01 09:14:23;;;;;;;5.10;3.80;;;8.60;99.90;;;;;;5074635;28;20109;-74
2021/12/01 09:16:51;;;;;;;7.03;3.22;;;8.60;99.90;;;;;;5074656;28;20044;-73
2021/12/01 09:19:17;;;;;;;5.53;3.10;;;8.70;99.90;;;;;;5073922;28;20052;-75
2021/12/01 09:21:43;;;;;;;5.60;3.20;;;8.70;99.90;;;;;;5074599;28;20054;-76
2021/12/01 09:24:09;;;;;;;5.78;3.58;;;8.70;99.90;;;;;;5073554;28;20500;-79
2021/12/01 09:26:35;;;;;;;5.55;2.78;;;8.70;99.90;;;;;;5074349;28;20458;-75
2021/12/01 09:29:02;;;;;;;3.78;1.75;;;8.70;99.90;;;;;;5073386;28;20041;-75
2021/12/01 09:31:28;;;;;;;6.18;2.20;;;8.70;99.90;;;;;;5073361;28;20397;-76
2021/12/01 09:33:54;;;;;;;6.22;2.10;;;8.90;99.90;;;;;;5074368;28;20046;-74
2021/12/01 09:36:19;;;;;;;6.03;2.28;;;8.80;99.90;;;;;;5074589;28;20052;-75
2021/12/01 09:38:45;;;;;;;3.65;2.05;;;8.80;99.90;;;;;;5074158;28;20481;-75
2021/12/01 09:41:11;;;;;;;3.97;1.63;;;8.80;99.90;;;;;;5074086;28;20045;-74
2021/12/01 09:43:38;;;;;;;4.03;1.85;;;8.80;99.90;;;;;;5074030;28;20055;-74
2021/12/01 09:46:09;;;;;;;6.15;1.63;;;8.90;99.90;;;;;;5073543;28;20066;-73
2021/12/01 09:48:36;;;;;;;4.00;1.40;;;9.00;99.90;;;;;;5073712;28;20044;-75
2021/12/01 09:51:02;;;;;;;8.50;1.67;;;9.00;99.90;;;;;;5073875;28;20106;-74
2021/12/01 09:53:28;;;;;;;6.07;1.45;;;9.00;99.90;;;;;;5074295;28;20060;-74
2021/12/01 09:55:54;;;;;;;4.97;1.60;;;8.90;99.90;;;;;;5074315;28;20072;-74
2021/12/01 09:58:24;;;;;;;3.25;1.45;;;9.00;99.90;;;;;;5074532;28;20047;-76
2021/12/01 10:00:57;;;;;;;8.20;1.67;;;9.00;99.90;;;;;;5073918;28;20142;-75
2021/12/01 10:03:23;;;;;;;5.40;1.38;;;9.00;99.90;;;;;;5073419;28;20056;-74
2021/12/01 10:06:13;;;;;;;5.32;1.50;;;9.00;99.90;;;;;;5074628;28;20045;-75
2021/12/01 10:08:45;;;;;;;5.57;1.50;;;8.90;99.90;;;;;;5074115;28;20036;-76
2021/12/01 10:11:15;;;;;;;4.38;1.23;;;8.90;99.90;;;;;;5074543;28;20123;-74
2021/12/01 10:13:48;;;;;;;9.57;1.90;;;8.80;99.90;;;;;;5072793;28;20048;-74
2021/12/01 10:16:16;;;;;;;4.60;1.10;;;8.70;99.90;;;;;;5073658;28;20044;-73
2021/12/01 10:18:43;;;;;;;6.97;1.30;;;8.60;99.90;;;;;;5073599;28;20081;-72
2021/12/01 10:21:21;;;;;;;5.50;1.23;;;8.40;99.90;;;;;;5073596;28;20054;-73
2021/12/01 10:23:55;;;;;;;7.95;1.35;;;8.40;99.90;;;;;;5072986;28;20135;-76
2021/12/01 10:26:24;;;;;;;3.80;1.58;;;8.40;99.90;;;;;;5073414;28;20044;-76
2021/12/01 10:28:52;;;;;;;5.57;0.90;;;8.60;99.90;;;;;;5073364;28;20079;-78
2021/12/01 10:31:37;;;;;;;5.68;1.08;;;8.70;99.90;;;;;;5073441;28;20044;-71
2021/12/01 10:34:23;;;;;;;5.03;1.00;;;8.80;99.90;;;;;;5073555;28;20475;-77
2021/12/01 10:37:05;;;;;;;4.20;1.08;;;8.70;99.90;;;;;;5073394;28;20040;-73
2021/12/01 10:39:30;;;;;;;6.38;1.40;;;8.70;99.90;;;;;;5073657;28;20080;-74
2021/12/01 10:42:05;;;;;;;7.97;1.40;;;8.70;99.90;;;;;;5073870;28;20485;-75
2021/12/01 10:44:33;;;;;;;5.57;1.08;;;9.00;99.90;;;;;;5073882;28;20097;-75
2021/12/01 10:47:10;;;;;;;6.20;1.77;;;8.70;99.90;;;;;;5073905;28;20048;-75
2021/12/01 10:49:44;;;;;;;3.17;1.05;;;8.80;99.90;;;;;;5073774;28;20044;-74
2021/12/01 10:52:38;;;;;;;9.35;1.38;;;8.80;99.90;;;;;;5071996;28;20110;-74
2021/12/01 10:55:16;;;;;;;6.45;1.30;;;8.80;99.90;;;;;;5071955;28;20086;-72
2021/12/01 10:57:54;;;;;;;3.75;1.15;;;8.80;99.90;;;;;;5073750;28;20041;-73
2021/12/01 11:00:23;;;;;;;6.72;1.23;;;8.80;99.90;;;;;;5071928;28;20060;-73
2021/12/01 11:02:50;;;;;;;3.15;0.93;;;8.80;99.90;;;;;;5072632;28;20051;-76
2021/12/01 11:05:35;;;;;;;7.03;1.23;;;8.80;99.90;;;;;;5073692;28;20048;-81
2021/12/01 11:08:22;;;;;;;6.65;1.40;;;8.80;99.90;;;;;;5073556;28;20059;-73
2021/12/01 11:11:01;;;;;;;7.47;1.20;;;8.90;99.90;;;;;;5072678;28;20477;-72
2021/12/01 11:13:27;;;;;;;6.28;1.45;;;8.90;99.90;;;;;;5073723;28;20121;-73
2021/12/01 11:15:55;;;;;;;7.85;1.70;;;9.00;99.90;;;;;;5074852;28;20516;-73
2021/12/01 11:18:25;;;;;;;8.10;1.90;;;8.90;99.90;;;;;;5076928;28;20161;-72
2021/12/01 11:20:53;;;;;;;5.10;1.27;;;8.90;99.90;;;;;;5076604;28;20489;-72
2021/12/01 11:23:21;;;;;;;5.00;1.05;;;8.90;99.90;;;;;;5077532;28;20107;-73
2021/12/01 11:26:09;;;;;;;6.85;1.60;;;8.90;99.90;;;;;;5076779;28;20048;-74
2021/12/01 11:28:39;;;;;;;5.20;1.23;;;8.90;99.90;;;;;;5076690;28;20048;-74
2021/12/01 11:31:09;;;;;;;6.05;1.80;;;9.00;99.90;;;;;;5076822;28;20500;-73
2021/12/01 11:33:35;;;;;;;6.93;1.30;;;8.90;99.90;;;;;;5075401;28;20047;-74
2021/12/01 11:36:07;;;;;;;12.18;1.65;;;8.90;99.90;;;;;;5075337;28;20040;-74
2021/12/01 11:38:34;;;;;;;6.03;1.65;;;8.90;99.90;;;;;;5076545;28;20132;-74
2021/12/01 11:41:01;;;;;;;9.20;1.90;;;8.90;99.90;;;;;;5076400;28;20048;-74
2021/12/01 11:43:30;;;;;;;6.95;1.65;;;8.90;99.90;;;;;;5076293;28;20094;-73
2021/12/01 11:45:56;;;;;;;8.77;1.63;;;8.90;99.90;;;;;;5076815;28;20059;-74
2021/12/01 11:48:25;;;;;;;7.18;1.85;;;8.90;99.90;;;;;;5076205;28;20342;-73
2021/12/01 11:50:59;;;;;;;4.45;1.65;;;8.80;99.90;;;;;;5075360;28;20371;-74
2021/12/01 11:53:34;;;;;;;8.52;1.98;;;8.90;99.90;;;;;;5077307;28;20362;-74
2021/12/01 11:56:10;;;;;;;14.35;2.58;;;8.90;99.90;;;;;;5076133;28;20051;-73
2021/12/01 11:58:51;;;;;;;8.88;2.00;;;8.90;99.90;;;;;;5076934;28;20076;-74
2021/12/01 12:01:20;;;;;;;9.23;2.33;;;8.90;99.90;;;;;;5076086;28;20044;-74
2021/12/01 12:04:06;;;;;;;9.60;2.60;;;8.90;99.90;;;;;;5076336;28;20090;-74
2021/12/01 12:06:36;;;;;;;5.90;2.30;;;8.90;99.90;;;;;;5064551;28;20427;-71
2021/12/01 12:09:08;;;;;;;7.05;1.60;;;8.90;99.90;;;;;;5075996;28;20044;-73
2021/12/01 12:11:41;;;;;;;9.15;2.00;;;8.90;99.90;;;;;;5075824;28;20139;-72
2021/12/01 12:14:18;;;;;;;10.02;2.58;;;8.80;99.90;;;;;;5075824;28;20040;-72
2021/12/01 12:17:14;;;;;;;8.48;2.67;;;8.70;99.90;;;;;;5076524;28;20455;-72
2021/12/01 12:19:55;;;;;;;11.40;2.40;;;8.50;99.90;;;;;;5075754;28;20078;-72
2021/12/01 12:22:29;;;;;;;10.73;2.63;;;8.40;99.90;;;;;;5075769;28;20079;-70
2021/12/01 12:24:56;;;;;;;12.25;3.05;;;8.20;99.90;;;;;;5075634;28;20158;-71
2021/12/01 12:27:33;;;;;;;12.68;2.28;;;8.10;99.90;;;;;;5075416;28;20048;-71
2021/12/01 12:30:01;;;;;;;10.98;2.30;;;8.20;99.90;;;;;;5075505;28;20556;-71
2021/12/01 12:32:30;;;;;;;6.35;1.75;;;8.30;99.90;;;;;;5075532;28;20084;-70
2021/12/01 12:35:06;;;;;;;5.78;1.73;;;8.30;99.90;;;;;;5076274;28;20054;-72
2021/12/01 12:37:34;;;;;;;8.25;2.05;;;8.30;99.90;;;;;;5075678;28;20493;-71
2021/12/01 12:40:02;;;;;;;12.20;1.80;;;8.20;99.90;;;;;;5075428;28;20075;-71
2021/12/01 12:42:28;;;;;;;7.80;1.90;;;8.10;99.90;;;;;;5075316;28;20048;-74
2021/12/01 12:44:58;;;;;;;10.20;2.03;;;7.90;99.90;;;;;;5075228;28;20044;-75
2021/12/01 12:47:39;;;;;;;10.65;2.40;;;7.70;99.90;;;;;;5074755;28;20361;-77
2021/12/01 12:50:20;;;;;;;17.58;2.58;;;7.60;99.90;;;;;;5074568;28;20040;-84
2021/12/01 12:52:48;;;;;;;8.35;2.03;;;7.40;99.90;;;;;;5075501;28;20096;-84
2021/12/01 12:55:23;;;;;;;11.90;2.17;;;7.30;99.90;;;;;;5073757;28;20481;-86
2021/12/01 12:58:01;;;;;;;8.32;2.33;;;7.30;99.90;;;;;;5058287;28;20052;-82
2021/12/01 13:00:32;;;;;;;11.48;2.63;;;7.40;99.90;;;;;;5074148;28;20044;-84
2021/12/01 13:03:24;;;;;;;7.15;1.67;;;7.50;99.90;;;;;;5073915;28;20050;-80
2021/12/01 13:05:51;;;;;;;7.45;1.90;;;7.50;99.90;;;;;;5074862;28;20058;-80
2021/12/01 13:08:39;;;;;;;8.15;1.70;;;7.50;99.90;;;;;;5074767;28;20044;-80